createdAt,value
2019-03-30T00:01:26.309Z,28.60
2019-03-30T00:03:56.241Z,28.55
2019-03-30T00:06:27.187Z,29.00
2019-03-30T00:08:57.419Z,29.40
2019-03-30T00:11:27.628Z,28.40
2019-03-30T00:13:57.590Z,26.70
2019-03-30T00:16:27.525Z,27.35
2019-03-30T00:18:59.745Z,27.07
2019-03-30T00:21:30.443Z,26.37
2019-03-30T00:24:00.620Z,28.07
2019-03-30T00:26:30.576Z,27.05
2019-03-30T00:29:00.815Z,26.12
2019-03-30T00:31:30.827Z,26.27
2019-03-30T00:34:02.340Z,25.88
2019-03-30T00:36:32.250Z,24.90
2019-03-30T00:39:03.194Z,27.00
2019-03-30T00:41:33.955Z,28.00
2019-03-30T00:44:03.856Z,24.30
2019-03-30T00:46:35.445Z,22.58
2019-03-30T00:49:05.345Z,25.70
2019-03-30T00:51:36.087Z,26.20
2019-03-30T00:54:07.654Z,25.15
2019-03-30T00:56:37.785Z,24.27
2019-03-30T00:59:07.663Z,25.62
2019-03-30T01:01:40.625Z,22.82
2019-03-30T01:04:11.524Z,25.92
2019-03-30T01:06:42.850Z,23.92
2019-03-30T01:09:15.551Z,24.40
2019-03-30T01:11:46.449Z,23.55
2019-03-30T01:14:17.909Z,23.27
2019-03-30T01:16:47.831Z,24.52
2019-03-30T01:19:17.541Z,24.02
2019-03-30T01:21:48.594Z,23.52
2019-03-30T01:24:18.583Z,24.95
2019-03-30T01:26:49.954Z,23.50
2019-03-30T01:29:20.463Z,23.45
2019-03-30T01:31:50.434Z,21.80
2019-03-30T01:34:20.346Z,23.95
2019-03-30T01:36:50.725Z,21.42
2019-03-30T01:39:21.069Z,21.87
2019-03-30T01:41:51.022Z,22.70
2019-03-30T01:44:21.899Z,23.15
2019-03-30T01:46:52.327Z,20.97
2019-03-30T01:49:23.600Z,23.27
2019-03-30T01:51:53.483Z,22.77
2019-03-30T01:54:23.412Z,22.55
2019-03-30T01:56:53.624Z,22.58
2019-03-30T01:59:23.533Z,22.48
2019-03-30T02:01:53.460Z,21.97
2019-03-30T02:04:23.320Z,22.73
2019-03-30T02:06:54.068Z,23.73
2019-03-30T02:09:25.665Z,21.97
2019-03-30T02:11:56.028Z,21.60
2019-03-30T02:14:25.838Z,21.48
2019-03-30T02:16:55.658Z,21.42
2019-03-30T02:19:25.618Z,22.73
2019-03-30T02:21:55.915Z,23.02
2019-03-30T02:24:26.364Z,22.22
2019-03-30T02:26:56.199Z,22.05
2019-03-30T02:29:26.690Z,19.65
2019-03-30T02:31:57.105Z,22.67
2019-03-30T02:34:28.484Z,22.15
2019-03-30T02:36:58.981Z,21.30
2019-03-30T02:39:29.987Z,22.17
2019-03-30T02:41:59.994Z,21.55
2019-03-30T02:44:30.632Z,22.02
2019-03-30T02:47:01.500Z,21.65
2019-03-30T02:49:31.442Z,23.38
2019-03-30T02:52:01.513Z,22.70
2019-03-30T02:54:31.410Z,20.95
2019-03-30T02:57:02.521Z,22.20
2019-03-30T02:59:32.433Z,23.75
2019-03-30T03:02:02.324Z,22.77
2019-03-30T03:04:32.266Z,23.07
2019-03-30T03:07:03.426Z,22.50
2019-03-30T03:09:33.355Z,23.25
2019-03-30T03:12:03.674Z,23.52
2019-03-30T03:14:33.765Z,23.10
2019-03-30T03:17:03.640Z,22.80
2019-03-30T03:19:34.335Z,22.77
2019-03-30T03:22:04.865Z,24.15
2019-03-30T03:24:34.760Z,23.80
2019-03-30T03:27:04.666Z,24.35
2019-03-30T03:29:34.486Z,22.95
2019-03-30T03:32:05.147Z,22.85
2019-03-30T03:34:34.953Z,22.22
2019-03-30T03:37:06.339Z,23.77
2019-03-30T03:39:36.263Z,23.57
2019-03-30T03:42:06.290Z,22.15
2019-03-30T03:44:36.167Z,23.73
2019-03-30T03:47:06.091Z,23.70
2019-03-30T03:49:35.940Z,25.50
2019-03-30T03:52:08.744Z,24.30
2019-03-30T03:54:40.971Z,22.25
2019-03-30T03:57:14.307Z,24.35
2019-03-30T03:59:45.662Z,24.00
2019-03-30T04:02:18.390Z,23.50
2019-03-30T04:04:51.619Z,24.45
2019-03-30T04:07:24.127Z,25.60
2019-03-30T04:09:57.045Z,23.85
2019-03-30T04:12:30.263Z,22.50
2019-03-30T04:15:03.175Z,23.45
2019-03-30T04:17:32.999Z,21.45
2019-03-30T04:20:03.292Z,22.50
2019-03-30T04:22:33.694Z,24.50
2019-03-30T04:25:03.752Z,22.17
2019-03-30T04:27:33.580Z,23.52
2019-03-30T04:30:03.817Z,24.27
2019-03-30T04:32:33.605Z,24.57
2019-03-30T04:35:03.853Z,22.95
2019-03-30T04:37:33.836Z,22.42
2019-03-30T04:40:04.457Z,23.30
2019-03-30T04:42:34.940Z,24.50
2019-03-30T04:45:07.542Z,24.57
2019-03-30T04:47:37.475Z,22.15
2019-03-30T04:50:08.208Z,23.45
2019-03-30T04:52:38.818Z,24.18
2019-03-30T04:55:09.051Z,23.85
2019-03-30T04:57:38.996Z,22.93
2019-03-30T05:00:10.660Z,23.38
2019-03-30T05:02:40.425Z,21.02
2019-03-30T05:05:10.740Z,22.40
2019-03-30T05:07:41.612Z,23.42
2019-03-30T05:10:11.732Z,22.20
2019-03-30T05:12:41.483Z,21.33
2019-03-30T05:15:11.598Z,22.58
2019-03-30T05:17:47.623Z,23.07
2019-03-30T05:20:13.535Z,21.90
2019-03-30T05:22:43.659Z,21.80
2019-03-30T05:25:15.027Z,21.80
2019-03-30T05:27:44.874Z,22.62
2019-03-30T05:30:15.329Z,21.60
2019-03-30T05:32:45.145Z,21.15
2019-03-30T05:35:14.999Z,22.67
2019-03-30T05:37:44.866Z,23.55
2019-03-30T05:40:14.740Z,21.23
2019-03-30T05:42:44.541Z,22.58
2019-03-30T05:45:14.722Z,20.88
2019-03-30T05:47:44.816Z,24.55
2019-03-30T05:50:14.628Z,24.00
2019-03-30T05:52:44.435Z,22.48
2019-03-30T05:55:15.046Z,24.63
2019-03-30T05:57:45.027Z,21.48
2019-03-30T06:00:17.093Z,22.10
2019-03-30T06:02:47.788Z,23.55
2019-03-30T06:05:17.545Z,22.05
2019-03-30T06:07:51.149Z,22.07
2019-03-30T06:10:21.051Z,22.30
2019-03-30T06:12:50.887Z,22.70
2019-03-30T06:15:22.128Z,21.27
2019-03-30T06:17:53.866Z,20.25
2019-03-30T06:20:24.372Z,20.37
2019-03-30T06:22:55.239Z,20.68
2019-03-30T06:25:25.192Z,19.73
2019-03-30T06:27:55.060Z,19.15
2019-03-30T06:30:28.423Z,19.87
2019-03-30T06:32:58.483Z,17.92
2019-03-30T06:35:28.395Z,18.57
2019-03-30T06:37:58.208Z,17.10
2019-03-30T06:40:28.015Z,17.82
2019-03-30T06:42:57.851Z,18.10
2019-03-30T06:45:27.692Z,17.07
2019-03-30T06:47:57.572Z,17.27
2019-03-30T06:50:27.508Z,17.05
2019-03-30T06:52:58.900Z,16.17
2019-03-30T06:55:28.908Z,16.95
2019-03-30T06:57:58.764Z,16.95
2019-03-30T07:00:34.428Z,16.23
2019-03-30T07:03:06.680Z,16.12
2019-03-30T07:05:41.908Z,15.90
2019-03-30T07:08:16.241Z,15.23
2019-03-30T07:10:46.686Z,15.80
2019-03-30T07:13:16.919Z,16.48
2019-03-30T07:15:48.853Z,14.87
2019-03-30T07:18:19.633Z,15.93
2019-03-30T07:20:50.569Z,15.93
2019-03-30T07:23:20.440Z,16.40
2019-03-30T07:25:51.459Z,17.17
2019-03-30T07:28:21.637Z,16.17
2019-03-30T07:30:51.557Z,14.68
2019-03-30T07:33:21.433Z,16.15
2019-03-30T07:35:51.703Z,15.10
2019-03-30T07:38:21.627Z,15.35
2019-03-30T07:40:51.492Z,14.28
2019-03-30T07:43:21.618Z,15.40
2019-03-30T07:45:51.949Z,14.38
2019-03-30T07:48:21.795Z,16.15
2019-03-30T07:50:51.622Z,15.35
2019-03-30T07:53:26.635Z,15.55
2019-03-30T07:56:07.685Z,15.00
2019-03-30T07:58:26.999Z,14.18
2019-03-30T08:00:56.829Z,15.08
2019-03-30T08:03:26.834Z,14.38
2019-03-30T08:05:56.878Z,14.23
2019-03-30T08:08:26.728Z,15.23
2019-03-30T08:10:58.750Z,14.95
2019-03-30T08:13:28.738Z,15.15
2019-03-30T08:15:58.520Z,16.57
2019-03-30T08:18:29.076Z,15.50
2019-03-30T08:21:00.280Z,15.60
2019-03-30T08:23:40.135Z,14.65
2019-03-30T08:26:01.804Z,14.63
2019-03-30T08:28:31.675Z,15.35
2019-03-30T08:31:01.587Z,15.18
2019-03-30T08:33:33.037Z,14.80
2019-03-30T08:36:02.851Z,15.30
2019-03-30T08:38:32.825Z,15.13
2019-03-30T08:41:02.750Z,16.37
2019-03-30T08:43:32.557Z,14.55
2019-03-30T08:46:02.393Z,16.02
2019-03-30T08:48:32.466Z,15.53
2019-03-30T08:51:03.144Z,15.78
2019-03-30T08:53:33.094Z,16.15
2019-03-30T08:56:03.696Z,16.30
2019-03-30T08:58:36.409Z,15.20
2019-03-30T09:01:06.799Z,15.30
2019-03-30T09:03:36.672Z,15.55
2019-03-30T09:06:06.630Z,16.00
2019-03-30T09:08:36.570Z,14.87
2019-03-30T09:11:06.403Z,15.18
2019-03-30T09:13:37.072Z,15.55
2019-03-30T09:16:06.905Z,14.28
2019-03-30T09:18:39.304Z,15.50
2019-03-30T09:21:10.153Z,15.88
2019-03-30T09:23:40.703Z,14.83
2019-03-30T09:26:11.320Z,15.45
2019-03-30T09:28:41.149Z,14.43
2019-03-30T09:31:11.006Z,14.40
2019-03-30T09:33:40.813Z,14.03
2019-03-30T09:36:10.691Z,13.55
2019-03-30T09:38:40.618Z,14.20
2019-03-30T09:41:12.480Z,14.58
2019-03-30T09:43:42.368Z,14.25
2019-03-30T09:46:12.265Z,14.70
2019-03-30T09:48:42.952Z,14.65
2019-03-30T09:51:12.933Z,14.85
2019-03-30T09:53:42.904Z,14.60
2019-03-30T09:56:13.079Z,14.98
2019-03-30T09:58:43.040Z,14.60
2019-03-30T10:01:13.361Z,15.50
2019-03-30T10:03:43.220Z,14.68
2019-03-30T10:06:13.034Z,15.38
2019-03-30T10:08:42.919Z,15.55
2019-03-30T10:11:12.806Z,15.88
2019-03-30T10:13:43.542Z,15.88
2019-03-30T10:16:13.397Z,15.45
2019-03-30T10:18:43.129Z,15.18
2019-03-30T10:21:13.629Z,15.80
2019-03-30T10:23:43.535Z,16.07
2019-03-30T10:26:13.358Z,16.23
2019-03-30T10:28:43.201Z,16.00
2019-03-30T10:31:13.009Z,15.55
2019-03-30T10:33:42.874Z,15.78
2019-03-30T10:36:12.850Z,16.75
2019-03-30T10:38:42.688Z,15.95
2019-03-30T10:41:13.031Z,17.50
2019-03-30T10:43:42.929Z,17.32
2019-03-30T10:46:12.719Z,17.55
2019-03-30T10:48:43.129Z,16.70
2019-03-30T10:51:12.974Z,17.05
2019-03-30T10:53:42.764Z,18.23
2019-03-30T10:56:12.590Z,17.23
2019-03-30T10:58:42.400Z,19.00
2019-03-30T11:01:13.355Z,18.65
2019-03-30T11:03:43.315Z,18.15
2019-03-30T11:06:13.170Z,19.25
2019-03-30T11:08:42.875Z,18.05
2019-03-30T11:11:12.595Z,16.35
2019-03-30T11:13:42.532Z,17.07
2019-03-30T11:16:14.036Z,17.23
2019-03-30T11:18:43.796Z,18.40
2019-03-30T11:21:14.468Z,18.05
2019-03-30T11:23:45.052Z,18.70
2019-03-30T11:26:15.163Z,18.87
2019-03-30T11:28:45.070Z,18.07
2019-03-30T11:31:14.822Z,19.20
2019-03-30T11:33:44.650Z,18.77
2019-03-30T11:36:14.482Z,19.80
2019-03-30T11:38:45.083Z,18.00
2019-03-30T11:41:15.568Z,19.00
2019-03-30T11:43:45.350Z,17.92
2019-03-30T11:46:15.162Z,20.95
2019-03-30T11:48:45.001Z,21.25
2019-03-30T11:51:14.721Z,21.87
2019-03-30T11:53:44.543Z,19.48
2019-03-30T11:56:14.334Z,18.32
2019-03-30T11:58:44.075Z,17.20
2019-03-30T12:01:13.826Z,18.45
2019-03-30T12:03:43.661Z,17.92
2019-03-30T12:06:13.386Z,17.45
2019-03-30T12:08:43.815Z,16.67
2019-03-30T12:11:14.395Z,18.32
2019-03-30T12:13:44.245Z,17.55
2019-03-30T12:16:13.954Z,15.00
2019-03-30T12:18:43.763Z,16.42
2019-03-30T12:21:13.596Z,16.05
2019-03-30T12:23:43.415Z,17.73
2019-03-30T12:26:13.260Z,15.60
2019-03-30T12:28:43.081Z,17.60
2019-03-30T12:31:12.951Z,16.62
2019-03-30T12:33:42.804Z,16.20
2019-03-30T12:36:12.779Z,16.27
2019-03-30T12:38:42.735Z,17.55
2019-03-30T12:41:12.580Z,18.17
2019-03-30T12:43:43.880Z,16.45
2019-03-30T12:46:13.749Z,17.42
2019-03-30T12:48:43.556Z,16.52
2019-03-30T12:51:13.346Z,15.10
2019-03-30T12:53:49.981Z,15.45
2019-03-30T12:56:14.768Z,15.58
2019-03-30T12:58:44.496Z,15.40
2019-03-30T13:01:15.603Z,15.93
2019-03-30T13:03:45.654Z,16.55
2019-03-30T13:06:15.500Z,14.53
2019-03-30T13:08:45.415Z,14.50
2019-03-30T13:11:15.223Z,15.38
2019-03-30T13:13:44.981Z,16.57
2019-03-30T13:16:14.710Z,16.85
2019-03-30T13:18:44.559Z,14.55
2019-03-30T13:21:14.280Z,15.35
2019-03-30T13:23:44.899Z,14.70
2019-03-30T13:26:14.644Z,16.70
2019-03-30T13:28:44.458Z,16.97
2019-03-30T13:31:14.289Z,18.67
2019-03-30T13:33:43.870Z,18.80
2019-03-30T13:36:14.754Z,17.05
2019-03-30T13:38:44.540Z,17.30
2019-03-30T13:41:14.603Z,16.87
2019-03-30T13:43:45.015Z,15.90
2019-03-30T13:46:14.940Z,16.82
2019-03-30T13:48:44.877Z,17.57
2019-03-30T13:51:14.596Z,16.97
2019-03-30T13:53:44.404Z,18.55
2019-03-30T13:56:17.534Z,19.87
2019-03-30T13:58:45.567Z,17.95
2019-03-30T14:01:16.298Z,19.27
2019-03-30T14:03:46.003Z,18.20
2019-03-30T14:06:16.070Z,19.80
2019-03-30T14:08:46.625Z,19.07
2019-03-30T14:11:16.446Z,19.85
2019-03-30T14:13:46.294Z,21.70
2019-03-30T14:16:16.005Z,20.23
2019-03-30T14:18:46.306Z,20.05
2019-03-30T14:21:16.274Z,19.27
2019-03-30T14:23:46.021Z,18.45
2019-03-30T14:26:30.440Z,18.73
2019-03-30T14:28:48.104Z,18.35
2019-03-30T14:31:17.898Z,18.57
2019-03-30T14:33:47.720Z,18.37
2019-03-30T14:36:17.364Z,22.67
2019-03-30T14:38:47.203Z,20.65
2019-03-30T14:41:16.977Z,20.60
2019-03-30T14:43:47.023Z,21.20
2019-03-30T14:46:16.934Z,19.80
2019-03-30T14:48:46.721Z,21.35
2019-03-30T14:51:16.478Z,20.35
2019-03-30T14:53:46.291Z,20.17
2019-03-30T14:56:16.043Z,19.98
2019-03-30T14:58:46.114Z,19.42
2019-03-30T15:01:16.089Z,20.40
2019-03-30T15:03:45.890Z,19.73
2019-03-30T15:06:15.690Z,20.15
2019-03-30T15:08:45.415Z,21.75
2019-03-30T15:11:15.153Z,21.15
2019-03-30T15:13:44.998Z,20.88
2019-03-30T15:16:15.028Z,20.35
2019-03-30T15:18:44.841Z,20.40
2019-03-30T15:21:14.710Z,22.37
2019-03-30T15:23:44.556Z,21.97
2019-03-30T15:26:14.483Z,22.15
2019-03-30T15:28:44.383Z,22.37
2019-03-30T15:31:14.195Z,19.48
2019-03-30T15:33:43.935Z,20.92
2019-03-30T15:36:13.752Z,22.27
2019-03-30T15:38:44.401Z,21.07
2019-03-30T15:41:14.175Z,19.85
2019-03-30T15:43:43.987Z,20.12
2019-03-30T15:46:14.438Z,21.48
2019-03-30T15:48:44.309Z,21.70
2019-03-30T15:51:15.063Z,20.90
2019-03-30T15:53:45.399Z,20.97
2019-03-30T15:56:15.215Z,21.05
2019-03-30T15:58:45.072Z,22.22
2019-03-30T16:01:14.859Z,23.40
2019-03-30T16:03:44.704Z,24.55
2019-03-30T16:06:14.626Z,22.90
2019-03-30T16:08:44.430Z,25.23
2019-03-30T16:11:14.288Z,25.17
2019-03-30T16:13:43.956Z,25.20
2019-03-30T16:16:13.714Z,26.15
2019-03-30T16:18:43.542Z,27.37
2019-03-30T16:21:13.487Z,25.95
2019-03-30T16:23:43.740Z,25.62
2019-03-30T16:26:14.488Z,24.92
2019-03-30T16:28:44.342Z,26.93
2019-03-30T16:31:15.854Z,25.97
2019-03-30T16:33:47.001Z,29.23
2019-03-30T16:36:17.065Z,28.32
2019-03-30T16:38:48.054Z,26.48
2019-03-30T16:41:19.318Z,28.42
2019-03-30T16:43:49.104Z,27.93
2019-03-30T16:46:20.868Z,27.55
2019-03-30T16:48:51.343Z,26.55
2019-03-30T16:51:21.295Z,26.52
2019-03-30T16:53:51.840Z,28.85
2019-03-30T16:56:23.181Z,28.15
2019-03-30T16:58:53.056Z,28.17
2019-03-30T17:01:23.985Z,28.73
2019-03-30T17:03:54.736Z,28.07
2019-03-30T17:06:26.988Z,28.80
2019-03-30T17:08:57.427Z,27.73
2019-03-30T17:11:31.063Z,27.73
2019-03-30T17:14:02.823Z,27.95
2019-03-30T17:16:32.865Z,29.32
2019-03-30T17:19:02.789Z,29.55
2019-03-30T17:21:36.069Z,28.07
2019-03-30T17:24:06.144Z,30.52
2019-03-30T17:26:37.427Z,31.12
2019-03-30T17:29:09.759Z,29.00
2019-03-30T17:31:41.574Z,29.63
2019-03-30T17:34:11.368Z,27.67
2019-03-30T17:36:41.362Z,28.50
2019-03-30T17:39:13.028Z,28.62
2019-03-30T17:41:42.906Z,31.50
2019-03-30T17:44:14.291Z,30.92
2019-03-30T17:46:46.980Z,28.60
2019-03-30T17:49:19.780Z,30.80
2019-03-30T17:51:53.802Z,30.20
2019-03-30T17:54:22.256Z,31.77
2019-03-30T17:56:52.122Z,30.68
2019-03-30T17:59:23.860Z,31.65
2019-03-30T18:01:54.026Z,31.42
2019-03-30T18:04:25.508Z,30.88
2019-03-30T18:07:03.672Z,33.33
2019-03-30T18:09:35.038Z,28.67
2019-03-30T18:12:07.344Z,29.90
2019-03-30T18:14:37.900Z,30.80
2019-03-30T18:17:07.866Z,31.57
2019-03-30T18:19:39.775Z,33.20
2019-03-30T18:22:09.616Z,35.75
2019-03-30T18:24:39.477Z,40.75
2019-03-30T18:27:10.097Z,37.45
2019-03-30T18:29:40.040Z,44.18
2019-03-30T18:32:09.857Z,40.38
2019-03-30T18:34:41.107Z,44.38
2019-03-30T18:37:12.144Z,44.88
2019-03-30T18:39:43.395Z,43.17
2019-03-30T18:42:13.438Z,42.80
2019-03-30T18:44:45.034Z,42.30
2019-03-30T18:47:14.855Z,44.77
2019-03-30T18:49:44.858Z,43.02
2019-03-30T18:52:16.948Z,45.92
2019-03-30T18:54:48.641Z,46.88
2019-03-30T18:57:20.174Z,48.85
2019-03-30T18:59:50.290Z,46.60
2019-03-30T19:02:20.849Z,46.10
2019-03-30T19:04:51.956Z,49.65
2019-03-30T19:07:22.087Z,50.05
2019-03-30T19:09:52.793Z,43.83
2019-03-30T19:12:23.118Z,49.10
2019-03-30T19:14:53.076Z,48.15
2019-03-30T19:17:23.108Z,47.80
2019-03-30T19:19:53.023Z,47.60
2019-03-30T19:22:22.933Z,53.08
2019-03-30T19:24:52.696Z,49.33
2019-03-30T19:27:23.344Z,52.05
2019-03-30T19:29:53.195Z,51.85
2019-03-30T19:32:24.788Z,47.43
2019-03-30T19:34:54.660Z,48.60
2019-03-30T19:37:24.471Z,46.92
2019-03-30T19:39:55.213Z,46.50
2019-03-30T19:42:25.733Z,52.83
2019-03-30T19:44:55.679Z,52.00
2019-03-30T19:47:25.656Z,48.42
2019-03-30T19:49:55.853Z,46.88
2019-03-30T19:52:39.185Z,51.50
2019-03-30T19:54:57.376Z,49.98
2019-03-30T19:57:27.855Z,46.55
2019-03-30T20:00:00.360Z,51.48
2019-03-30T20:02:30.275Z,48.48
2019-03-30T20:05:02.958Z,48.98
2019-03-30T20:07:33.524Z,47.88
2019-03-30T20:10:08.514Z,49.88
2019-03-30T20:12:39.461Z,47.27
2019-03-30T20:15:10.896Z,48.83
2019-03-30T20:17:40.708Z,47.53
2019-03-30T20:20:12.577Z,47.43
2019-03-30T20:22:42.584Z,48.23
2019-03-30T20:25:12.674Z,48.02
2019-03-30T20:27:42.632Z,50.75
2019-03-30T20:30:14.346Z,48.15
2019-03-30T20:32:44.249Z,48.20
2019-03-30T20:35:16.676Z,47.58
2019-03-30T20:37:46.578Z,47.48
2019-03-30T20:40:16.502Z,48.13
2019-03-30T20:42:46.344Z,48.70
2019-03-30T20:45:17.197Z,46.63
2019-03-30T20:47:46.951Z,49.13
2019-03-30T20:50:17.259Z,49.58
2019-03-30T20:52:47.113Z,51.08
2019-03-30T20:55:17.213Z,54.03
2019-03-30T20:57:47.951Z,47.80
2019-03-30T21:00:18.470Z,53.83
2019-03-30T21:02:49.217Z,51.80
2019-03-30T21:05:19.663Z,54.03
2019-03-30T21:07:49.480Z,53.90
2019-03-30T21:10:19.609Z,49.85
2019-03-30T21:12:49.751Z,53.90
2019-03-30T21:15:21.170Z,53.65
2019-03-30T21:17:51.149Z,51.25
2019-03-30T21:20:21.004Z,51.65
2019-03-30T21:22:51.459Z,52.30
2019-03-30T21:25:21.310Z,50.95
2019-03-30T21:27:51.182Z,56.00
2019-03-30T21:30:21.219Z,55.63
2019-03-30T21:32:51.094Z,55.30
2019-03-30T21:35:21.150Z,52.23
2019-03-30T21:37:50.939Z,54.77
2019-03-30T21:40:20.800Z,51.53
2019-03-30T21:46:02.028Z,57.58
2019-03-30T21:48:31.899Z,53.92
2019-03-30T21:51:02.741Z,50.65
2019-03-30T21:53:32.648Z,51.80
2019-03-30T21:56:02.665Z,55.67
2019-03-30T21:58:32.435Z,53.52
2019-03-30T22:01:02.858Z,55.55
2019-03-30T22:03:32.725Z,55.43
2019-03-30T22:06:03.355Z,54.10
2019-03-30T22:08:34.028Z,55.98
2019-03-30T22:11:06.770Z,54.38
2019-03-30T22:13:37.499Z,53.10
2019-03-30T22:16:07.326Z,56.33
2019-03-30T22:18:37.163Z,54.40
2019-03-30T22:21:06.987Z,52.48
2019-03-30T22:23:36.750Z,52.38
2019-03-30T22:26:06.731Z,55.78
2019-03-30T22:28:36.693Z,55.58
2019-03-30T22:31:06.642Z,54.10
2019-03-30T22:33:36.414Z,55.15
2019-03-30T22:36:06.348Z,56.55
2019-03-30T22:38:36.284Z,56.50
2019-03-30T22:41:06.983Z,59.55
2019-03-30T22:43:36.797Z,56.00
2019-03-30T22:46:07.753Z,52.98
2019-03-30T22:48:37.793Z,54.45
2019-03-30T22:51:14.938Z,56.20
2019-03-30T22:53:44.751Z,59.45
2019-03-30T22:56:31.262Z,55.75
2019-03-30T22:59:01.065Z,57.53
2019-03-30T23:01:32.939Z,54.73
2019-03-30T23:04:04.403Z,57.88
2019-03-30T23:06:34.364Z,60.67
2019-03-30T23:09:13.507Z,56.35
2019-03-30T23:11:47.573Z,57.45
2019-03-30T23:14:19.723Z,57.90
2019-03-30T23:16:50.088Z,56.00
2019-03-30T23:19:21.509Z,57.67
2019-03-30T23:21:51.410Z,62.23
2019-03-30T23:24:23.138Z,61.20
2019-03-30T23:26:53.882Z,59.70
2019-03-30T23:29:23.667Z,58.25
2019-03-30T23:31:53.995Z,61.95
2019-03-30T23:34:25.081Z,59.60
2019-03-30T23:36:54.970Z,57.10
2019-03-30T23:39:24.873Z,60.52
2019-03-30T23:42:15.582Z,62.08
2019-03-30T23:44:47.174Z,62.98
2019-03-30T23:47:23.338Z,59.80
2019-03-30T23:49:57.192Z,60.50
2019-03-30T23:52:29.330Z,59.80
2019-03-30T23:55:01.331Z,62.17
2019-03-30T23:57:31.213Z,63.38
